sensor_id;sensor_type;location;lat;lon;timestamp;temperature;humidity
59148;DHT22;44930;52.878;6.168;2023-08-08T00:01:48;14.00;99.90
59148;DHT22;44930;52.878;6.168;2023-08-08T00:04:14;13.90;99.90
59148;DHT22;44930;52.878;6.168;2023-08-08T00:06:39;14.00;99.90
59148;DHT22;44930;52.878;6.168;2023-08-08T00:09:05;14.00;99.90
59148;DHT22;44930;52.878;6.168;2023-08-08T00:11:30;14.00;99.90
59148;DHT22;44930;52.878;6.168;2023-08-08T00:13:57;14.00;99.90
59148;DHT22;44930;52.878;6.168;2023-08-08T00:16:23;14.00;99.90
59148;DHT22;44930;52.878;6.168;2023-08-08T00:18:49;14.00;99.90
59148;DHT22;44930;52.878;6.168;2023-08-08T00:21:21;13.70;99.90
59148;DHT22;44930;52.878;6.168;2023-08-08T00:23:47;14.10;99.90
59148;DHT22;44930;52.878;6.168;2023-08-08T00:26:12;14.10;99.90
59148;DHT22;44930;52.878;6.168;2023-08-08T00:28:38;14.10;99.90
59148;DHT22;44930;52.878;6.168;2023-08-08T00:31:03;14.20;99.90
59148;DHT22;44930;52.878;6.168;2023-08-08T00:33:29;13.90;99.90
59148;DHT22;44930;52.878;6.168;2023-08-08T00:35:55;14.00;99.90
59148;DHT22;44930;52.878;6.168;2023-08-08T00:38:20;13.80;99.90
59148;DHT22;44930;52.878;6.168;2023-08-08T00:40:46;13.90;99.90
59148;DHT22;44930;52.878;6.168;2023-08-08T00:45:38;13.70;99.90
59148;DHT22;44930;52.878;6.168;2023-08-08T00:48:05;13.80;99.90
59148;DHT22;44930;52.878;6.168;2023-08-08T00:50:31;13.80;99.90
59148;DHT22;44930;52.878;6.168;2023-08-08T00:55:23;13.80;99.90
59148;DHT22;44930;52.878;6.168;2023-08-08T00:57:48;13.70;99.90
59148;DHT22;44930;52.878;6.168;2023-08-08T01:00:14;13.70;99.90
59148;DHT22;44930;52.878;6.168;2023-08-08T01:05:07;13.70;99.90
59148;DHT22;44930;52.878;6.168;2023-08-08T01:07:41;13.80;99.90
59148;DHT22;44930;52.878;6.168;2023-08-08T01:10:17;13.70;99.90
59148;DHT22;44930;52.878;6.168;2023-08-08T01:12:52;13.70;99.90
59148;DHT22;44930;52.878;6.168;2023-08-08T01:15:18;13.90;99.90
59148;DHT22;44930;52.878;6.168;2023-08-08T01:17:46;13.80;99.90
59148;DHT22;44930;52.878;6.168;2023-08-08T01:20:14;13.80;99.90
59148;DHT22;44930;52.878;6.168;2023-08-08T01:23:13;13.80;99.90
59148;DHT22;44930;52.878;6.168;2023-08-08T01:25:41;13.70;99.90
59148;DHT22;44930;52.878;6.168;2023-08-08T01:28:07;14.10;99.90
59148;DHT22;44930;52.878;6.168;2023-08-08T01:30:33;13.80;99.90
59148;DHT22;44930;52.878;6.168;2023-08-08T01:32:59;13.70;99.90
59148;DHT22;44930;52.878;6.168;2023-08-08T01:35:30;13.80;99.90
59148;DHT22;44930;52.878;6.168;2023-08-08T01:38:04;13.70;99.90
59148;DHT22;44930;52.878;6.168;2023-08-08T01:40:34;13.90;99.90
59148;DHT22;44930;52.878;6.168;2023-08-08T01:43:00;13.90;99.90
59148;DHT22;44930;52.878;6.168;2023-08-08T01:45:27;13.80;99.90
59148;DHT22;44930;52.878;6.168;2023-08-08T01:47:52;14.00;99.90
59148;DHT22;44930;52.878;6.168;2023-08-08T01:50:19;13.80;99.90
59148;DHT22;44930;52.878;6.168;2023-08-08T01:52:44;13.90;99.90
59148;DHT22;44930;52.878;6.168;2023-08-08T01:55:10;13.80;99.90
59148;DHT22;44930;52.878;6.168;2023-08-08T01:57:36;14.00;99.90
59148;DHT22;44930;52.878;6.168;2023-08-08T02:00:01;14.00;99.90
59148;DHT22;44930;52.878;6.168;2023-08-08T02:02:29;14.10;99.90
59148;DHT22;44930;52.878;6.168;2023-08-08T02:04:55;14.20;99.90
59148;DHT22;44930;52.878;6.168;2023-08-08T02:07:20;14.20;99.90
59148;DHT22;44930;52.878;6.168;2023-08-08T02:09:46;13.90;99.90
59148;DHT22;44930;52.878;6.168;2023-08-08T02:12:11;14.20;99.90
59148;DHT22;44930;52.878;6.168;2023-08-08T02:14:37;14.30;99.90
59148;DHT22;44930;52.878;6.168;2023-08-08T02:17:03;14.20;99.90
59148;DHT22;44930;52.878;6.168;2023-08-08T02:19:28;14.30;99.90
59148;DHT22;44930;52.878;6.168;2023-08-08T02:21:55;14.60;99.90
59148;DHT22;44930;52.878;6.168;2023-08-08T02:24:20;14.30;99.90
59148;DHT22;44930;52.878;6.168;2023-08-08T02:26:46;14.30;99.90
59148;DHT22;44930;52.878;6.168;2023-08-08T02:29:11;14.50;99.90
59148;DHT22;44930;52.878;6.168;2023-08-08T02:31:37;14.40;99.90
59148;DHT22;44930;52.878;6.168;2023-08-08T02:34:02;14.40;99.90
59148;DHT22;44930;52.878;6.168;2023-08-08T02:36:28;14.40;99.90
59148;DHT22;44930;52.878;6.168;2023-08-08T02:38:53;14.40;99.90
59148;DHT22;44930;52.878;6.168;2023-08-08T02:41:20;14.30;99.90
59148;DHT22;44930;52.878;6.168;2023-08-08T02:43:46;14.30;99.90
59148;DHT22;44930;52.878;6.168;2023-08-08T02:46:11;14.00;99.90
59148;DHT22;44930;52.878;6.168;2023-08-08T02:48:37;14.00;99.90
59148;DHT22;44930;52.878;6.168;2023-08-08T02:51:02;14.20;99.90
59148;DHT22;44930;52.878;6.168;2023-08-08T02:53:28;14.10;99.90
59148;DHT22;44930;52.878;6.168;2023-08-08T02:55:54;14.10;99.90
59148;DHT22;44930;52.878;6.168;2023-08-08T02:58:19;14.00;99.90
59148;DHT22;44930;52.878;6.168;2023-08-08T03:00:45;13.80;99.90
59148;DHT22;44930;52.878;6.168;2023-08-08T03:03:10;13.80;99.90
59148;DHT22;44930;52.878;6.168;2023-08-08T03:05:36;13.80;99.90
59148;DHT22;44930;52.878;6.168;2023-08-08T03:08:01;14.00;99.90
59148;DHT22;44930;52.878;6.168;2023-08-08T03:10:27;13.70;99.90
59148;DHT22;44930;52.878;6.168;2023-08-08T03:12:52;13.60;99.90
59148;DHT22;44930;52.878;6.168;2023-08-08T03:15:18;14.00;99.90
59148;DHT22;44930;52.878;6.168;2023-08-08T03:17:44;13.90;99.90
59148;DHT22;44930;52.878;6.168;2023-08-08T03:20:10;13.70;99.90
59148;DHT22;44930;52.878;6.168;2023-08-08T03:25:02;13.70;99.90
59148;DHT22;44930;52.878;6.168;2023-08-08T03:29:55;13.70;99.90
59148;DHT22;44930;52.878;6.168;2023-08-08T03:32:21;13.50;99.90
59148;DHT22;44930;52.878;6.168;2023-08-08T03:34:47;13.70;99.90
59148;DHT22;44930;52.878;6.168;2023-08-08T03:37:12;13.40;99.90
59148;DHT22;44930;52.878;6.168;2023-08-08T03:39:38;13.60;99.90
59148;DHT22;44930;52.878;6.168;2023-08-08T03:42:04;13.50;99.90
59148;DHT22;44930;52.878;6.168;2023-08-08T03:44:29;13.60;99.90
59148;DHT22;44930;52.878;6.168;2023-08-08T03:46:55;13.50;99.90
59148;DHT22;44930;52.878;6.168;2023-08-08T03:49:21;13.60;99.90
59148;DHT22;44930;52.878;6.168;2023-08-08T03:51:46;13.30;99.90
59148;DHT22;44930;52.878;6.168;2023-08-08T03:54:14;13.50;99.90
59148;DHT22;44930;52.878;6.168;2023-08-08T03:59:06;13.90;99.90
59148;DHT22;44930;52.878;6.168;2023-08-08T04:01:32;13.50;99.90
59148;DHT22;44930;52.878;6.168;2023-08-08T04:03:57;13.50;99.90
59148;DHT22;44930;52.878;6.168;2023-08-08T04:06:24;13.50;99.90
59148;DHT22;44930;52.878;6.168;2023-08-08T04:11:16;13.50;99.90
59148;DHT22;44930;52.878;6.168;2023-08-08T04:13:42;13.50;99.90
59148;DHT22;44930;52.878;6.168;2023-08-08T04:16:08;13.40;99.90
59148;DHT22;44930;52.878;6.168;2023-08-08T04:18:33;13.40;99.90
59148;DHT22;44930;52.878;6.168;2023-08-08T04:20:59;13.50;99.90
59148;DHT22;44930;52.878;6.168;2023-08-08T04:23:25;13.40;99.90
59148;DHT22;44930;52.878;6.168;2023-08-08T04:25:52;13.50;99.90
59148;DHT22;44930;52.878;6.168;2023-08-08T04:28:18;13.70;99.90
59148;DHT22;44930;52.878;6.168;2023-08-08T04:30:43;13.60;99.90
59148;DHT22;44930;52.878;6.168;2023-08-08T04:33:09;13.30;99.90
59148;DHT22;44930;52.878;6.168;2023-08-08T04:35:35;13.90;99.90
59148;DHT22;44930;52.878;6.168;2023-08-08T04:40:26;13.80;99.90
59148;DHT22;44930;52.878;6.168;2023-08-08T04:42:52;13.70;99.90
59148;DHT22;44930;52.878;6.168;2023-08-08T04:45:18;13.70;99.90
59148;DHT22;44930;52.878;6.168;2023-08-08T04:47:43;13.80;99.90
59148;DHT22;44930;52.878;6.168;2023-08-08T04:50:10;13.90;99.90
59148;DHT22;44930;52.878;6.168;2023-08-08T04:52:35;13.90;99.90
59148;DHT22;44930;52.878;6.168;2023-08-08T04:55:01;14.00;99.90
59148;DHT22;44930;52.878;6.168;2023-08-08T04:57:26;14.00;99.90
59148;DHT22;44930;52.878;6.168;2023-08-08T04:59:52;14.10;99.90
59148;DHT22;44930;52.878;6.168;2023-08-08T05:02:18;14.10;99.90
59148;DHT22;44930;52.878;6.168;2023-08-08T05:04:43;14.10;99.90
59148;DHT22;44930;52.878;6.168;2023-08-08T05:07:09;14.00;99.90
59148;DHT22;44930;52.878;6.168;2023-08-08T05:09:34;14.00;99.90
59148;DHT22;44930;52.878;6.168;2023-08-08T05:12:00;13.90;99.90
59148;DHT22;44930;52.878;6.168;2023-08-08T05:14:26;13.80;99.90
59148;DHT22;44930;52.878;6.168;2023-08-08T05:16:52;13.70;99.90
59148;DHT22;44930;52.878;6.168;2023-08-08T05:19:17;13.60;99.90
59148;DHT22;44930;52.878;6.168;2023-08-08T05:21:43;13.50;99.90
59148;DHT22;44930;52.878;6.168;2023-08-08T05:24:08;13.50;99.90
59148;DHT22;44930;52.878;6.168;2023-08-08T05:26:34;13.50;99.90
59148;DHT22;44930;52.878;6.168;2023-08-08T05:28:59;13.40;99.90
59148;DHT22;44930;52.878;6.168;2023-08-08T05:31:25;13.40;99.90
59148;DHT22;44930;52.878;6.168;2023-08-08T05:33:51;13.40;99.90
59148;DHT22;44930;52.878;6.168;2023-08-08T05:36:16;13.50;99.90
59148;DHT22;44930;52.878;6.168;2023-08-08T05:38:42;13.50;99.90
59148;DHT22;44930;52.878;6.168;2023-08-08T05:41:08;13.40;99.90
59148;DHT22;44930;52.878;6.168;2023-08-08T05:43:33;13.50;99.90
59148;DHT22;44930;52.878;6.168;2023-08-08T05:45:59;13.60;99.90
59148;DHT22;44930;52.878;6.168;2023-08-08T05:48:25;13.50;99.90
59148;DHT22;44930;52.878;6.168;2023-08-08T05:50:50;13.80;99.90
59148;DHT22;44930;52.878;6.168;2023-08-08T05:53:16;13.80;99.90
59148;DHT22;44930;52.878;6.168;2023-08-08T05:55:41;13.90;99.90
59148;DHT22;44930;52.878;6.168;2023-08-08T05:58:10;14.00;99.90
59148;DHT22;44930;52.878;6.168;2023-08-08T06:00:36;14.10;99.90
59148;DHT22;44930;52.878;6.168;2023-08-08T06:03:02;14.00;99.90
59148;DHT22;44930;52.878;6.168;2023-08-08T06:05:28;14.10;99.90
59148;DHT22;44930;52.878;6.168;2023-08-08T06:07:54;14.10;99.90
59148;DHT22;44930;52.878;6.168;2023-08-08T06:10:21;14.20;99.90
59148;DHT22;44930;52.878;6.168;2023-08-08T06:12:46;14.50;99.90
59148;DHT22;44930;52.878;6.168;2023-08-08T06:15:12;14.10;99.90
59148;DHT22;44930;52.878;6.168;2023-08-08T06:17:38;14.50;99.90
59148;DHT22;44930;52.878;6.168;2023-08-08T06:20:05;14.40;99.90
59148;DHT22;44930;52.878;6.168;2023-08-08T06:22:32;14.40;99.90
59148;DHT22;44930;52.878;6.168;2023-08-08T06:24:57;14.50;99.90
59148;DHT22;44930;52.878;6.168;2023-08-08T06:27:23;14.60;99.90
59148;DHT22;44930;52.878;6.168;2023-08-08T06:32:14;14.70;99.90
59148;DHT22;44930;52.878;6.168;2023-08-08T06:34:40;14.70;99.90
59148;DHT22;44930;52.878;6.168;2023-08-08T06:37:05;14.70;99.90
59148;DHT22;44930;52.878;6.168;2023-08-08T06:39:31;14.70;99.90
59148;DHT22;44930;52.878;6.168;2023-08-08T06:41:57;14.80;99.90
59148;DHT22;44930;52.878;6.168;2023-08-08T06:44:23;14.40;99.90
59148;DHT22;44930;52.878;6.168;2023-08-08T06:46:48;14.40;99.90
59148;DHT22;44930;52.878;6.168;2023-08-08T06:49:14;14.90;99.90
59148;DHT22;44930;52.878;6.168;2023-08-08T06:51:39;14.90;99.90
59148;DHT22;44930;52.878;6.168;2023-08-08T06:54:05;15.40;99.90
59148;DHT22;44930;52.878;6.168;2023-08-08T06:56:31;15.00;99.90
59148;DHT22;44930;52.878;6.168;2023-08-08T06:58:56;15.10;99.90
59148;DHT22;44930;52.878;6.168;2023-08-08T07:01:22;15.10;99.90
59148;DHT22;44930;52.878;6.168;2023-08-08T07:03:48;15.20;99.90
59148;DHT22;44930;52.878;6.168;2023-08-08T07:06:17;15.20;99.90
59148;DHT22;44930;52.878;6.168;2023-08-08T07:08:42;15.20;99.90
59148;DHT22;44930;52.878;6.168;2023-08-08T07:11:08;15.20;99.90
59148;DHT22;44930;52.878;6.168;2023-08-08T07:13:33;15.30;99.90
59148;DHT22;44930;52.878;6.168;2023-08-08T07:15:59;15.30;99.90
59148;DHT22;44930;52.878;6.168;2023-08-08T07:20:50;15.50;99.90
59148;DHT22;44930;52.878;6.168;2023-08-08T07:23:16;15.40;99.90
59148;DHT22;44930;52.878;6.168;2023-08-08T07:25:42;15.70;99.90
59148;DHT22;44930;52.878;6.168;2023-08-08T07:28:08;15.90;99.90
59148;DHT22;44930;52.878;6.168;2023-08-08T07:30:34;16.10;99.90
59148;DHT22;44930;52.878;6.168;2023-08-08T07:33:00;16.00;99.90
59148;DHT22;44930;52.878;6.168;2023-08-08T07:35:25;16.10;99.90
59148;DHT22;44930;52.878;6.168;2023-08-08T07:37:51;16.10;99.90
59148;DHT22;44930;52.878;6.168;2023-08-08T07:40:18;16.00;99.90
59148;DHT22;44930;52.878;6.168;2023-08-08T07:42:48;15.90;99.90
59148;DHT22;44930;52.878;6.168;2023-08-08T07:45:14;16.00;99.90
59148;DHT22;44930;52.878;6.168;2023-08-08T07:47:39;15.90;99.90
59148;DHT22;44930;52.878;6.168;2023-08-08T07:50:06;15.90;99.90
59148;DHT22;44930;52.878;6.168;2023-08-08T07:52:35;16.00;99.90
59148;DHT22;44930;52.878;6.168;2023-08-08T07:55:01;16.10;99.90
59148;DHT22;44930;52.878;6.168;2023-08-08T07:57:27;15.90;99.90
59148;DHT22;44930;52.878;6.168;2023-08-08T07:59:53;16.10;99.90
59148;DHT22;44930;52.878;6.168;2023-08-08T08:02:18;16.20;99.90
59148;DHT22;44930;52.878;6.168;2023-08-08T08:04:44;16.10;99.90
59148;DHT22;44930;52.878;6.168;2023-08-08T08:07:09;15.80;99.90
59148;DHT22;44930;52.878;6.168;2023-08-08T08:09:35;16.40;99.90
59148;DHT22;44930;52.878;6.168;2023-08-08T08:12:00;16.30;99.90
59148;DHT22;44930;52.878;6.168;2023-08-08T08:14:26;16.40;99.90
59148;DHT22;44930;52.878;6.168;2023-08-08T08:16:52;16.20;99.90
59148;DHT22;44930;52.878;6.168;2023-08-08T08:19:17;16.30;99.90
59148;DHT22;44930;52.878;6.168;2023-08-08T08:21:43;16.40;99.90
59148;DHT22;44930;52.878;6.168;2023-08-08T08:24:09;16.40;99.90
59148;DHT22;44930;52.878;6.168;2023-08-08T08:26:34;16.50;99.90
59148;DHT22;44930;52.878;6.168;2023-08-08T08:29:00;16.40;99.90
59148;DHT22;44930;52.878;6.168;2023-08-08T08:31:25;16.40;99.90
59148;DHT22;44930;52.878;6.168;2023-08-08T08:33:52;16.80;99.90
59148;DHT22;44930;52.878;6.168;2023-08-08T08:36:19;16.50;99.90
59148;DHT22;44930;52.878;6.168;2023-08-08T08:38:46;16.40;99.90
59148;DHT22;44930;52.878;6.168;2023-08-08T08:41:17;16.40;99.90
59148;DHT22;44930;52.878;6.168;2023-08-08T08:43:43;16.40;99.90
59148;DHT22;44930;52.878;6.168;2023-08-08T08:46:11;15.90;99.90
59148;DHT22;44930;52.878;6.168;2023-08-08T08:48:37;16.50;99.90
59148;DHT22;44930;52.878;6.168;2023-08-08T08:51:02;16.50;99.90
59148;DHT22;44930;52.878;6.168;2023-08-08T08:55:56;16.80;99.90
59148;DHT22;44930;52.878;6.168;2023-08-08T08:58:24;16.70;99.90
59148;DHT22;44930;52.878;6.168;2023-08-08T09:00:51;16.80;99.90
59148;DHT22;44930;52.878;6.168;2023-08-08T09:03:17;16.70;99.90
59148;DHT22;44930;52.878;6.168;2023-08-08T09:05:43;16.90;99.90
59148;DHT22;44930;52.878;6.168;2023-08-08T09:08:10;16.80;99.90
59148;DHT22;44930;52.878;6.168;2023-08-08T09:10:37;16.30;99.90
59148;DHT22;44930;52.878;6.168;2023-08-08T09:13:03;16.40;99.90
59148;DHT22;44930;52.878;6.168;2023-08-08T09:15:33;16.90;99.90
59148;DHT22;44930;52.878;6.168;2023-08-08T09:18:00;17.00;99.90
59148;DHT22;44930;52.878;6.168;2023-08-08T09:20:26;17.10;99.90
59148;DHT22;44930;52.878;6.168;2023-08-08T09:22:55;17.10;99.90
59148;DHT22;44930;52.878;6.168;2023-08-08T09:25:21;17.20;99.90
59148;DHT22;44930;52.878;6.168;2023-08-08T09:27:46;16.90;99.90
59148;DHT22;44930;52.878;6.168;2023-08-08T09:30:13;16.60;99.90
59148;DHT22;44930;52.878;6.168;2023-08-08T09:32:38;17.50;99.90
59148;DHT22;44930;52.878;6.168;2023-08-08T09:35:04;17.70;99.90
59148;DHT22;44930;52.878;6.168;2023-08-08T09:37:33;17.30;99.90
59148;DHT22;44930;52.878;6.168;2023-08-08T09:39:59;17.20;99.90
59148;DHT22;44930;52.878;6.168;2023-08-08T09:42:29;17.30;99.90
59148;DHT22;44930;52.878;6.168;2023-08-08T09:44:56;17.20;99.90
59148;DHT22;44930;52.878;6.168;2023-08-08T09:49:48;17.80;99.90
59148;DHT22;44930;52.878;6.168;2023-08-08T09:52:15;17.70;99.90
59148;DHT22;44930;52.878;6.168;2023-08-08T09:54:41;17.80;99.90
59148;DHT22;44930;52.878;6.168;2023-08-08T09:57:07;17.40;99.90
59148;DHT22;44930;52.878;6.168;2023-08-08T09:59:34;18.10;99.90
59148;DHT22;44930;52.878;6.168;2023-08-08T10:02:01;17.40;99.90
59148;DHT22;44930;52.878;6.168;2023-08-08T10:04:26;17.60;99.90
59148;DHT22;44930;52.878;6.168;2023-08-08T10:06:52;17.90;99.90
59148;DHT22;44930;52.878;6.168;2023-08-08T10:09:18;18.00;99.90
59148;DHT22;44930;52.878;6.168;2023-08-08T10:11:44;18.30;99.90
59148;DHT22;44930;52.878;6.168;2023-08-08T10:14:12;18.10;99.90
59148;DHT22;44930;52.878;6.168;2023-08-08T10:16:42;18.10;99.90
59148;DHT22;44930;52.878;6.168;2023-08-08T10:19:09;17.90;99.90
59148;DHT22;44930;52.878;6.168;2023-08-08T10:21:36;17.60;99.90
59148;DHT22;44930;52.878;6.168;2023-08-08T10:24:06;17.60;99.90
59148;DHT22;44930;52.878;6.168;2023-08-08T10:26:33;17.00;99.90
59148;DHT22;44930;52.878;6.168;2023-08-08T10:29:00;17.10;99.90
59148;DHT22;44930;52.878;6.168;2023-08-08T10:31:27;17.60;99.90
59148;DHT22;44930;52.878;6.168;2023-08-08T10:34:03;17.40;99.90
59148;DHT22;44930;52.878;6.168;2023-08-08T10:36:49;17.80;99.90
59148;DHT22;44930;52.878;6.168;2023-08-08T10:39:19;17.80;99.90
59148;DHT22;44930;52.878;6.168;2023-08-08T10:41:50;17.80;99.90
59148;DHT22;44930;52.878;6.168;2023-08-08T10:44:23;18.40;99.90
59148;DHT22;44930;52.878;6.168;2023-08-08T10:46:51;18.80;99.90
59148;DHT22;44930;52.878;6.168;2023-08-08T10:49:17;18.30;99.90
59148;DHT22;44930;52.878;6.168;2023-08-08T10:51:44;18.70;99.90
59148;DHT22;44930;52.878;6.168;2023-08-08T10:56:50;20.10;99.90
59148;DHT22;44930;52.878;6.168;2023-08-08T10:59:22;18.90;99.90
59148;DHT22;44930;52.878;6.168;2023-08-08T11:01:49;18.80;99.90
59148;DHT22;44930;52.878;6.168;2023-08-08T11:04:18;19.00;99.90
59148;DHT22;44930;52.878;6.168;2023-08-08T11:06:44;19.20;99.90
59148;DHT22;44930;52.878;6.168;2023-08-08T11:09:10;19.60;99.90
59148;DHT22;44930;52.878;6.168;2023-08-08T11:11:38;18.90;99.90
59148;DHT22;44930;52.878;6.168;2023-08-08T11:14:17;18.30;99.90
59148;DHT22;44930;52.878;6.168;2023-08-08T11:16:44;18.60;99.90
59148;DHT22;44930;52.878;6.168;2023-08-08T11:19:10;19.00;99.90
59148;DHT22;44930;52.878;6.168;2023-08-08T11:21:39;19.20;99.90
59148;DHT22;44930;52.878;6.168;2023-08-08T11:24:05;20.50;99.90
59148;DHT22;44930;52.878;6.168;2023-08-08T11:26:32;18.90;99.90
59148;DHT22;44930;52.878;6.168;2023-08-08T11:29:03;18.50;99.90
59148;DHT22;44930;52.878;6.168;2023-08-08T11:31:30;18.50;99.90
59148;DHT22;44930;52.878;6.168;2023-08-08T11:33:58;18.10;99.90
59148;DHT22;44930;52.878;6.168;2023-08-08T11:36:24;19.00;99.90
59148;DHT22;44930;52.878;6.168;2023-08-08T11:38:51;18.80;99.90
59148;DHT22;44930;52.878;6.168;2023-08-08T11:41:19;19.00;99.90
59148;DHT22;44930;52.878;6.168;2023-08-08T11:43:46;18.90;99.90
59148;DHT22;44930;52.878;6.168;2023-08-08T11:46:13;19.00;99.90
59148;DHT22;44930;52.878;6.168;2023-08-08T11:48:39;19.00;99.90
59148;DHT22;44930;52.878;6.168;2023-08-08T11:51:05;18.80;99.90
59148;DHT22;44930;52.878;6.168;2023-08-08T11:53:31;19.60;99.90
59148;DHT22;44930;52.878;6.168;2023-08-08T11:55:58;19.40;99.90
59148;DHT22;44930;52.878;6.168;2023-08-08T11:58:24;19.30;99.90
59148;DHT22;44930;52.878;6.168;2023-08-08T12:00:51;19.40;99.90
59148;DHT22;44930;52.878;6.168;2023-08-08T12:03:18;19.70;99.90
59148;DHT22;44930;52.878;6.168;2023-08-08T12:05:46;19.70;99.90
59148;DHT22;44930;52.878;6.168;2023-08-08T12:08:11;19.70;99.90
59148;DHT22;44930;52.878;6.168;2023-08-08T12:10:37;20.40;99.90
59148;DHT22;44930;52.878;6.168;2023-08-08T12:13:03;19.70;99.90
59148;DHT22;44930;52.878;6.168;2023-08-08T12:15:32;20.00;99.90
59148;DHT22;44930;52.878;6.168;2023-08-08T12:18:01;19.80;99.90
59148;DHT22;44930;52.878;6.168;2023-08-08T12:20:28;20.40;99.90
59148;DHT22;44930;52.878;6.168;2023-08-08T12:22:55;20.30;99.90
59148;DHT22;44930;52.878;6.168;2023-08-08T12:25:20;20.50;99.90
59148;DHT22;44930;52.878;6.168;2023-08-08T12:27:46;20.40;99.90
59148;DHT22;44930;52.878;6.168;2023-08-08T12:30:12;20.40;99.90
59148;DHT22;44930;52.878;6.168;2023-08-08T12:32:37;20.10;99.90
59148;DHT22;44930;52.878;6.168;2023-08-08T12:35:03;20.20;99.90
59148;DHT22;44930;52.878;6.168;2023-08-08T12:37:29;20.60;99.90
59148;DHT22;44930;52.878;6.168;2023-08-08T12:39:54;20.60;99.90
59148;DHT22;44930;52.878;6.168;2023-08-08T12:42:20;20.80;99.90
59148;DHT22;44930;52.878;6.168;2023-08-08T12:44:46;20.40;99.90
59148;DHT22;44930;52.878;6.168;2023-08-08T12:47:12;20.70;99.90
59148;DHT22;44930;52.878;6.168;2023-08-08T12:49:39;21.80;99.90
59148;DHT22;44930;52.878;6.168;2023-08-08T12:52:05;20.70;99.90
59148;DHT22;44930;52.878;6.168;2023-08-08T12:54:30;20.50;99.90
59148;DHT22;44930;52.878;6.168;2023-08-08T12:56:56;20.50;99.90
59148;DHT22;44930;52.878;6.168;2023-08-08T12:59:21;20.30;99.90
59148;DHT22;44930;52.878;6.168;2023-08-08T13:01:47;20.50;99.90
59148;DHT22;44930;52.878;6.168;2023-08-08T13:04:12;20.70;99.90
59148;DHT22;44930;52.878;6.168;2023-08-08T13:06:38;20.50;99.90
59148;DHT22;44930;52.878;6.168;2023-08-08T13:09:04;20.00;99.90
59148;DHT22;44930;52.878;6.168;2023-08-08T13:11:29;20.50;99.90
59148;DHT22;44930;52.878;6.168;2023-08-08T13:13:55;19.80;99.90
59148;DHT22;44930;52.878;6.168;2023-08-08T13:16:21;19.80;99.90
59148;DHT22;44930;52.878;6.168;2023-08-08T13:18:46;19.80;99.90
59148;DHT22;44930;52.878;6.168;2023-08-08T13:21:12;19.60;99.90
59148;DHT22;44930;52.878;6.168;2023-08-08T13:23:40;19.50;99.90
59148;DHT22;44930;52.878;6.168;2023-08-08T13:26:05;19.90;99.90
59148;DHT22;44930;52.878;6.168;2023-08-08T13:28:31;19.30;99.90
59148;DHT22;44930;52.878;6.168;2023-08-08T13:30:57;19.50;99.90
59148;DHT22;44930;52.878;6.168;2023-08-08T13:33:22;19.20;99.90
59148;DHT22;44930;52.878;6.168;2023-08-08T13:35:48;19.10;99.90
59148;DHT22;44930;52.878;6.168;2023-08-08T13:38:13;18.80;99.90
59148;DHT22;44930;52.878;6.168;2023-08-08T13:40:43;18.70;99.90
59148;DHT22;44930;52.878;6.168;2023-08-08T13:43:09;18.50;99.90
59148;DHT22;44930;52.878;6.168;2023-08-08T13:45:35;18.60;99.90
59148;DHT22;44930;52.878;6.168;2023-08-08T13:48:01;19.10;99.90
59148;DHT22;44930;52.878;6.168;2023-08-08T13:55:19;18.80;99.90
59148;DHT22;44930;52.878;6.168;2023-08-08T13:57:44;18.60;99.90
59148;DHT22;44930;52.878;6.168;2023-08-08T14:00:10;18.40;99.90
59148;DHT22;44930;52.878;6.168;2023-08-08T14:02:40;18.20;99.90
59148;DHT22;44930;52.878;6.168;2023-08-08T14:05:06;18.30;99.90
59148;DHT22;44930;52.878;6.168;2023-08-08T14:07:33;18.00;99.90
59148;DHT22;44930;52.878;6.168;2023-08-08T14:09:59;17.60;99.90
59148;DHT22;44930;52.878;6.168;2023-08-08T14:12:25;17.70;99.90
59148;DHT22;44930;52.878;6.168;2023-08-08T14:14:50;17.90;99.90
59148;DHT22;44930;52.878;6.168;2023-08-08T14:17:16;17.70;99.90
59148;DHT22;44930;52.878;6.168;2023-08-08T14:19:41;17.60;99.90
59148;DHT22;44930;52.878;6.168;2023-08-08T14:22:07;17.40;99.90
59148;DHT22;44930;52.878;6.168;2023-08-08T14:24:32;17.50;99.90
59148;DHT22;44930;52.878;6.168;2023-08-08T14:26:58;17.60;99.90
59148;DHT22;44930;52.878;6.168;2023-08-08T14:29:24;17.50;99.90
59148;DHT22;44930;52.878;6.168;2023-08-08T14:31:49;17.40;99.90
59148;DHT22;44930;52.878;6.168;2023-08-08T14:34:15;17.50;99.90
59148;DHT22;44930;52.878;6.168;2023-08-08T14:36:40;17.70;99.90
59148;DHT22;44930;52.878;6.168;2023-08-08T14:39:07;18.10;99.90
59148;DHT22;44930;52.878;6.168;2023-08-08T14:41:33;18.00;99.90
59148;DHT22;44930;52.878;6.168;2023-08-08T14:43:58;17.70;99.90
59148;DHT22;44930;52.878;6.168;2023-08-08T14:46:24;17.90;99.90
59148;DHT22;44930;52.878;6.168;2023-08-08T14:48:49;18.00;99.90
59148;DHT22;44930;52.878;6.168;2023-08-08T14:51:15;18.80;99.90
59148;DHT22;44930;52.878;6.168;2023-08-08T14:53:44;18.90;99.90
59148;DHT22;44930;52.878;6.168;2023-08-08T14:56:10;18.60;99.90
59148;DHT22;44930;52.878;6.168;2023-08-08T14:58:36;18.70;99.90
59148;DHT22;44930;52.878;6.168;2023-08-08T15:01:01;18.80;99.90
59148;DHT22;44930;52.878;6.168;2023-08-08T15:03:27;19.30;99.90
59148;DHT22;44930;52.878;6.168;2023-08-08T15:05:53;19.50;99.90
59148;DHT22;44930;52.878;6.168;2023-08-08T15:08:19;19.60;99.90
59148;DHT22;44930;52.878;6.168;2023-08-08T15:10:44;19.70;99.90
59148;DHT22;44930;52.878;6.168;2023-08-08T15:13:10;19.50;99.90
59148;DHT22;44930;52.878;6.168;2023-08-08T15:15:36;20.30;99.90
59148;DHT22;44930;52.878;6.168;2023-08-08T15:18:01;19.40;99.90
59148;DHT22;44930;52.878;6.168;2023-08-08T15:20:27;19.80;99.90
59148;DHT22;44930;52.878;6.168;2023-08-08T15:22:52;20.10;99.90
59148;DHT22;44930;52.878;6.168;2023-08-08T15:25:18;20.10;99.90
59148;DHT22;44930;52.878;6.168;2023-08-08T15:27:44;20.00;99.90
59148;DHT22;44930;52.878;6.168;2023-08-08T15:30:10;20.40;99.90
59148;DHT22;44930;52.878;6.168;2023-08-08T15:32:35;19.90;99.90
59148;DHT22;44930;52.878;6.168;2023-08-08T15:35:01;20.40;99.90
59148;DHT22;44930;52.878;6.168;2023-08-08T15:37:26;20.80;99.90
59148;DHT22;44930;52.878;6.168;2023-08-08T15:39:52;21.00;99.90
59148;DHT22;44930;52.878;6.168;2023-08-08T15:42:18;20.80;99.90
59148;DHT22;44930;52.878;6.168;2023-08-08T15:44:43;21.00;99.90
59148;DHT22;44930;52.878;6.168;2023-08-08T15:47:09;21.30;99.90
59148;DHT22;44930;52.878;6.168;2023-08-08T15:49:34;21.20;99.90
59148;DHT22;44930;52.878;6.168;2023-08-08T15:52:00;21.30;99.90
59148;DHT22;44930;52.878;6.168;2023-08-08T15:54:26;21.10;99.90
59148;DHT22;44930;52.878;6.168;2023-08-08T15:56:52;21.30;99.90
59148;DHT22;44930;52.878;6.168;2023-08-08T15:59:18;21.40;99.90
59148;DHT22;44930;52.878;6.168;2023-08-08T16:01:43;21.00;99.90